Flight Track Log - Related Links

Times and Time Zones

All times are in EST time to prevent confusion due to time zone crossing. See the EJA122 flight status page for this flight to view local times or setup timezone preferences in your user account.

Time Position Orientation Groundspeed Altitude Reporting Facility
EST Latitude Longitude Course Direction KTS MPH feet Rate Location/Type
Sun 10:36:13 AM 42.1500 -88.9381 157° South 225 259 5,000  Level Chicago Center
Sun 10:37:14 AM 42.0944 -88.8822 143° Southeast 248 285 5,000  Level Chicago Center
Sun 10:38:16 AM 42.0436 -88.8311 143° Southeast 248 285 5,000  Level Chicago Center
Sun 10:39:17 AM 41.9892 -88.7728 141° Southeast 251 289 5,000 -49 Level Chicago Center
Sun 10:40:00 AM 42.0468 -88.6011 139° Southeast  Level Estimated
Sun 10:40:19 AM 41.9211 -88.7047 143° Southeast 254 292 4,900  Level Chicago Center
Sun 10:41:00 AM 41.9857 -88.5670 157° South  Level FlightAware Approximate
Sun 10:41:20 AM 41.8667 -88.6453 141° Southeast 252 290 4,900  Level Chicago Center
Sun 10:42:22 AM 41.8111 -88.5911 144° Southeast 251 289 4,900 -98 Level Chicago Center
Sun 10:43:23 AM 41.7692 -88.5156 127° Southeast 270 311 4,700 -780 Descending Chicago Center
Sun 10:44:25 AM 41.7650 -88.4106 93° East 282 325 3,300 -829 Descending Chicago Center
Sun 10:45:26 AM 41.7811 -88.3139 77° East 274 315 3,000 -146 Descending Chicago Center
Sun 10:46:28 AM 41.7969 -88.2225 77° East 262 302 3,000 -293 Level Chicago Center
Sun 10:47:29 AM 41.8128 -88.1325 77° East 254 292 2,400 -244 Descending Chicago Center
Sun 10:48:31 AM 41.8306 -88.0286 77° East 246 283 2,500 49 Climbing Chicago Center
Sun 10:49:32 AM 41.8778 -87.9619 46° Northeast 250 288 2,500 -98 Level Chicago Center
Sun 10:50:33 AM 41.8875 -87.8894 80° East 224 258 2,300 -195 Descending Chicago Center
Sun 10:51:35 AM 41.8553 -87.8469 136° Southeast 184 212 2,100 -341 Descending Chicago Center
Sun 10:52:36 AM 41.8242 -87.8097 138° Southeast 163 188 1,600 -537 Descending Chicago Center
Sun 10:53:38 AM 41.7981 -87.7708 132° Southeast 150 173 1,000 -581 Descending Chicago Center
Sun 10:55:00 AM 41.7833 -87.7500 119° Southeast  Level FlightAware Approximate

Login

Don't have an account? Register now (free) for customized features, flight alerts, and more!